Latest Coastal Weather Observations for Cape Wessel

IDD60701

Issued at 8:31 pm CST Monday 27 February 2017 (issued every 10 minutes, with the page automatically refreshed every 10 minutes)

About coastal observations | Map of coastal stations | Coastal observations for NT | Marine services | Other Formats
Station Details ID: 200786 Name: CAPE WESSEL Lat: -11.00 Lon: 136.76 Height: 18.0 m
Data from the previous 72 hours. | See also: Recent months at Cape Wessel
Date/Time
CST
Temp
°C
Wind Pressure Rain since
9am
mm
Weather Cloud Vis
km
Sea
Height
m
Swell
Dir  Spd
kts
Gust
kts
hPa Trend Height
m
Period
s
Dir
27/08:30pm 27.3 E 7 10 1008.1 - 2.0 - - - - - - -
27/08:00pm 27.4 ESE 9 11 1007.6 - 2.0 - - - - - - -
27/07:30pm 27.4 ESE 9 11 1007.4 - 1.6 - - - - - - -
27/07:00pm 27.5 ESE 9 12 1007.3 - 1.6 - - - - - - -
27/06:30pm 27.6 E 11 13 1006.9 - 1.6 - - - - - - -
27/06:00pm 28.6 ESE 9 12 1007.0 - 1.6 - - - - - - -
27/05:30pm 29.0 ESE 12 14 1006.7 - 1.6 - - - - - - -
27/05:00pm 29.6 E 8 10 1006.6 - 1.6 - - - - - - -
27/04:30pm 28.2 ESE 12 15 1006.4 - 1.6 - - - - - - -
27/04:00pm 29.4 ESE 11 19 1006.3 - 1.2 - - - - - - -
27/03:30pm 31.0 ESE 10 13 1006.2 - 1.2 - - - - - - -
27/03:00pm 30.9 ESE 10 13 1006.3 - 1.2 - - - - - - -
27/02:30pm 30.1 E 8 11 1006.4 - 1.2 - - - - - - -
27/02:00pm 27.1 NE 7 12 1006.8 - 1.2 - - - - - - -
27/01:30pm 27.8 ESE 8 14 1007.3 - 0.6 - - - - - - -
27/01:23pm 27.5 SE 13 17 1007.5 - 0.0 - - - - - - -
27/01:00pm 32.5 E 9 11 1007.6 - 0.0 - - - - - - -
27/12:30pm 32.8 E 8 10 1008.1 - 0.0 - - - - - - -
27/12:00pm 32.4 ESE 9 11 1008.6 - 0.0 - - - - - - -
27/11:30am 31.5 ESE 9 12 1008.7 - 0.0 - - - - - - -
27/11:00am 31.8 ESE 9 13 1009.1 - 0.0 - - - - - - -
27/10:30am 31.3 ESE 9 12 1009.4 - 0.0 - - - - - - -
27/10:00am 31.0 E 8 11 1009.4 - 0.0 - - - - - - -
27/09:30am 30.0 E 7 11 1009.4 - 0.0 - - - - - - -
27/09:00am 29.3 E 7 9 1009.3 - 4.0 Recent precip. - - - - - -
27/08:30am 26.5 ESE 11 17 1009.3 - 3.8 - - - - - - -
27/08:00am 28.3 ESE 9 11 1008.8 - 0.0 - - - - - - -
27/07:30am 28.1 ESE 9 12 1008.4 - 0.0 - - - - - - -
27/07:00am 27.9 SE 9 12 1008.1 - 0.0 - - - - - - -
27/06:30am 27.2 SE 9 10 1008.0 - 0.0 - - - - - - -
27/06:00am 27.1 SSE 7 8 1007.8 - 0.0 - - - - - - -
27/05:30am 26.5 S 7 8 1007.6 - 0.0 - - - - - - -
27/05:00am 26.0 SSW 5 5 1007.5 - 0.0 - - - - - - -
27/04:30am 26.0 SSW 5 6 1007.6 - 0.0 - - - - - - -
27/04:00am 26.2 SSW 5 6 1007.2 - 0.0 - - - - - - -
27/03:30am 26.4 SSE 5 6 1007.1 - 0.0 - - - - - - -
27/03:00am 26.6 SSE 6 7 1007.2 - 0.0 - - - - - - -
27/02:30am 26.7 SSE 6 7 1007.4 - 0.0 - - - - - - -
27/02:00am 26.7 SSE 5 6 1007.8 - 0.0 - - - - - - -
27/01:30am 26.7 SSE 4 6 1008.0 - 0.0 - - - - - - -
27/01:00am 26.8 SSE 5 6 1008.2 - 0.0 - - - - - - -
27/12:30am 26.9 SSE 6 7 1008.4 - 0.0 - - - - - - -
27/12:00am 26.8 S 6 7 1008.7 - 0.0 - - - - - - -
 
Date/Time
CST
Temp
°C
Wind Pressure Rain since
9am
mm
Weather Cloud Vis
km
Sea
Height
m
Swell
Dir  Spd
kts
Gust
kts
hPa Trend Height
m
Period
s
Dir
26/11:30pm 26.7 S 6 7 1008.9 - 0.0 - - - - - - -
26/11:00pm 26.8 SSE 4 6 - - 0.0 - - - - - - -
26/10:30pm 26.9 SE 6 7 1008.9 - 0.0 - - - - - - -
26/10:00pm 26.9 SE 5 6 1008.9 - 0.0 - - - - - - -
26/09:30pm 27.1 SE 5 6 1008.5 - 0.0 - - - - - - -
26/09:00pm 27.1 ESE 4 5 1008.0 - 0.0 - - - - - - -
26/08:30pm 27.4 SE 5 6 1007.9 - 0.0 - - - - - - -
26/08:00pm 27.4 ESE 6 7 1007.6 - 0.0 - - - - - - -
26/07:30pm 27.3 ENE 3 5 1007.1 - 0.0 - - - - - - -
26/07:00pm 27.9 ENE 6 7 1007.1 - 0.0 - - - - - - -
26/06:30pm 28.3 E 6 7 1006.6 - 0.0 - - - - - - -
26/06:00pm 28.7 E 7 9 1006.6 - 0.0 - - - - - - -
26/05:30pm 29.8 ENE 7 9 1006.3 - 0.0 - - - - - - -
26/05:00pm 30.5 E 7 9 1006.1 - 0.0 - - - - - - -
26/04:30pm 31.2 E 7 10 1006.0 - 0.0 - - - - - - -
26/04:00pm 31.4 ENE 8 11 1006.0 - 0.0 - - - - - - -
26/03:30pm 32.2 ENE 8 11 1006.1 - 0.0 - - - - - - -
26/03:00pm 32.2 ENE 9 11 1006.1 - 0.0 - - - - - - -
26/02:30pm 32.0 ENE 9 12 1006.0 - 0.0 - - - - - - -
26/02:00pm 32.2 ENE 9 11 1006.4 - 0.0 - - - - - - -
26/01:30pm 32.7 E 8 11 1006.6 - 0.0 - - - - - - -
26/01:00pm 32.5 E 9 11 1007.1 - 0.0 - - - - - - -
26/12:30pm 31.9 E 8 11 1007.3 - 0.0 - - - - - - -
26/12:00pm 31.9 ESE 9 11 1007.6 - 0.0 - - - - - - -
26/11:30am 31.6 ESE 9 11 1007.8 - 0.0 - - - - - - -
26/11:00am 30.4 ESE 9 11 1008.1 - 0.0 - - - - - - -
26/10:30am 29.5 ESE 9 11 1008.2 - 0.0 - - - - - - -
26/10:00am 29.1 ESE 9 11 1008.4 - 0.0 - - - - - - -
26/09:30am 30.0 ESE 7 9 1008.4 - 0.0 - - - - - - -
26/09:00am 29.2 SE 8 10 1008.5 - 1.2 - - - - - - -
26/08:30am 28.9 ESE 7 9 1008.4 - 1.2 - - - - - - -
26/08:00am 28.2 ESE 7 9 1008.3 - 1.2 - - - - - - -
26/07:30am 27.0 E 5 6 1007.9 - 1.2 - - - - - - -
26/07:00am 26.0 E 4 5 1007.7 - 1.2 - - - - - - -
26/06:30am 25.7 ENE 5 5 1007.4 - 1.2 - - - - - - -
26/06:00am 25.5 SW 5 6 1007.2 - 1.2 - - - - - - -
26/05:30am 25.6 SSW 6 7 1006.8 - 1.2 - - - - - - -
26/05:00am 25.8 SSW 6 7 1006.7 - 1.2 - - - - - - -
26/04:30am 25.9 SW 6 8 1006.7 - 1.2 - - - - - - -
26/04:00am 25.9 SW 6 7 1006.6 - 1.2 - - - - - - -
26/03:30am 26.1 SSW 6 6 1006.4 - 1.2 - - - - - - -
26/03:00am 26.3 SW 4 5 1006.5 - 1.2 - - - - - - -
26/02:30am 26.3 SW 5 5 1006.9 - 1.2 - - - - - - -
26/02:00am 26.4 SW 4 4 1007.4 - 1.2 - - - - - - -
26/01:30am 26.5 SW 5 6 1007.8 - 1.2 - - - - - - -
26/01:00am 26.4 SW 6 6 1007.9 - 1.2 - - - - - - -
26/12:30am 26.3 SW 5 5 1008.1 - 1.2 - - - - - - -
26/12:00am 26.5 SSW 7 8 1008.6 - 1.2 - - - - - - -
 
Date/Time
CST
Temp
°C
Wind Pressure Rain since
9am
mm
Weather Cloud Vis
km
Sea
Height
m
Swell
Dir  Spd
kts
Gust
kts
hPa Trend Height
m
Period
s
Dir
25/11:30pm 26.5 SSW 6 7 1008.9 - 1.2 - - - - - - -
25/11:00pm 26.5 SSW 7 8 1009.0 - 1.2 - - - - - - -
25/10:30pm 26.2 SSW 6 6 1008.8 - 1.2 - - - - - - -
25/10:00pm 26.3 SW 3 5 1008.6 - 1.2 - - - - - - -
25/09:30pm 26.4 WSW 5 5 1008.5 - 1.2 - - - - - - -
25/09:00pm 26.4 CALM 0 0 1008.4 - 1.2 - - - - - - -
25/08:30pm 26.6 NE 3 3 1008.0 - 1.2 - - - - - - -
25/08:00pm 26.7 NE 4 5 1007.9 - 1.2 - - - - - - -
25/07:30pm 26.9 NE 4 5 1007.9 - 1.2 - - - - - - -
25/07:00pm 27.3 NNE 3 5 1007.8 - 1.2 - - - - - - -
25/06:30pm 28.0 NNE 2 4 1007.6 - 1.2 - - - - - - -
25/06:00pm 28.6 NNE 3 5 1007.3 - 1.2 - - - - - - -
25/05:30pm 29.0 NW 6 8 1007.0 - 1.2 - - - - - - -
25/05:00pm 29.3 N 5 6 1006.8 - 1.2 - - - - - - -
25/04:30pm 29.4 NNW 5 6 1006.9 - 1.2 - - - - - - -
25/04:00pm 30.1 NNW 6 8 1007.1 - 1.2 - - - - - - -
25/03:30pm 29.8 NE 4 6 1007.5 - 1.2 - - - - - - -
25/03:00pm 29.5 ESE 9 12 1008.2 - 1.2 - - - - - - -
25/02:30pm 29.8 SE 12 14 1008.8 - 1.2 - - - - - - -
25/02:00pm 31.6 SE 10 15 1008.8 - 1.2 - - - - - - -
25/01:30pm 29.7 SE 11 15 1009.2 - 1.0 - - - - - - -
25/01:00pm 30.4 SSE 12 15 1009.5 - 1.0 - - - - - - -
25/12:30pm 29.5 ESE 6 8 1009.3 - 1.0 - - - - - - -
25/12:00pm 29.3 WNW 9 12 1009.7 - 0.0 - - - - - - -
25/11:30am 29.8 NW 12 15 1010.7 - 0.0 - - - - - - -
25/11:00am 28.8 NW 9 15 1011.2 - 0.0 - - - - - - -
25/10:30am 30.5 ESE 8 10 1011.3 - 0.0 - - - - - - -
25/10:00am 30.7 SSE 8 10 1011.2 - 0.0 - - - - - - -
25/09:30am 31.5 SSE 8 11 1011.1 - 0.0 - - - - - - -
25/09:00am 30.5 SE 5 7 1010.7 - 0.0 - - - - - - -
25/08:30am 29.8 W 4 6 1010.7 - 0.0 - - - - - - -
25/08:00am 28.4 WSW 6 9 1010.5 - 0.0 - - - - - - -
25/07:30am 27.4 SSW 8 9 1010.1 - 0.0 - - - - - - -
25/07:00am 26.7 S 6 8 1010.1 - 0.0 - - - - - - -
25/06:30am 26.0 SSW 8 10 1010.0 - 0.0 - - - - - - -
25/06:00am 26.3 WSW 6 8 1009.7 - 0.0 - - - - - - -
25/05:30am 26.2 SSW 5 6 1009.1 - 0.0 - - - - - - -
25/05:00am 26.2 SSW 5 5 1009.1 - 0.0 - - - - - - -
25/04:30am 26.2 SSW 5 6 1009.1 - 0.0 - - - - - - -
25/04:00am 26.5 S 6 7 1009.0 - 0.0 - - - - - - -
25/03:30am 26.4 SSW 6 6 1009.0 - 0.0 - - - - - - -
25/03:00am 26.4 SSW 5 6 1008.7 - 0.0 - - - - - - -
25/02:30am 26.4 SSW 6 6 1008.8 - 0.0 - - - - - - -
25/02:00am 26.9 S 5 6 1009.2 - 0.0 - - - - - - -
25/01:30am 27.5 S 7 8 1009.4 - 0.0 - - - - - - -
25/01:00am 27.7 S 8 10 1009.5 - 0.0 - - - - - - -
25/12:30am 27.8 SSE 8 10 1010.2 - 0.0 - - - - - - -
25/12:00am 27.7 SSE 7 9 1010.4 - 0.0 - - - - - - -
 
Date/Time
CST
Temp
°C
Wind Pressure Rain since
9am
mm
Weather Cloud Vis
km
Sea
Height
m
Swell
Dir  Spd
kts
Gust
kts
hPa Trend Height
m
Period
s
Dir
24/11:30pm 27.6 S 6 7 1010.6 - 0.0 - - - - - - -
24/11:00pm 27.5 S 6 7 1010.9 - 0.0 - - - - - - -
24/10:30pm 27.1 S 6 7 1010.9 - 0.0 - - - - - - -
24/10:00pm 27.3 SSW 4 5 1011.1 - 0.0 - - - - - - -
24/09:30pm 27.4 S 5 6 1010.6 - 0.0 - - - - - - -
24/09:00pm 27.9 S 6 8 1010.3 - 0.0 - - - - - - -

Other Formats:

Comma delimited format used in spreadsheet applications
http://www.bom.gov.au/fwo/IDD60701/IDD60701.94147.axf

JavaScript Object Notation format (JSON) in row-major order
http://www.bom.gov.au/fwo/IDD60701/IDD60701.94147.json